Latest Weather Observations for Lord Howe Island

IDN60801

Issued at 11:35 pm EST Tuesday 2 September 2014 (issued every 30 minutes, with the page automatically refreshed every 10 minutes)

About weather observations | Map of weather stations | Latest weather observations for NSW | Other Formats
Station Details ID: 200839 Name: LORD HOWE ISLAND AERO Lat: -31.54 Lon: 159.08 Height: 5.0 m
Data from the previous 72 hours. | See also: Recent months at Lord Howe Island
Date/Time
EST
Temp
°C
App
Temp
°C
Dew
Point
Rel
Hum
%
Delta-T
°C
Wind Press
QNH
hPa
Press
MSL
hPa
Rain
since 9 am
mm
Dir
 
Spd
km/h
Gust
km/h
Spd
kts
Gust
kts
02/11:30pm 15.3 9.1 12.8 85 1.4 WSW 37 54 20 29 1006.3 1006.3 -
02/11:29pm 15.2 9.4 12.7 85 1.4 WSW 35 54 19 29 1006.2 - -
02/11:25pm 15.3 8.9 12.0 81 1.8 WSW 37 52 20 28 1005.9 - -
02/11:16pm 15.1 7.7 12.4 84 1.5 WSW 43 52 23 28 1006.2 - -
02/11:14pm 16.7 11.1 13.3 80 1.9 W 35 57 19 31 1006.4 - -
02/11:00pm 19.6 18.2 14.6 73 2.9 NNW 15 28 8 15 1005.7 - -
02/10:30pm 19.6 17.4 15.0 75 2.7 N 20 37 11 20 1005.9 - -
02/10:00pm 19.7 17.6 14.7 73 2.9 NW 19 39 10 21 1006.2 - -
02/09:30pm 19.6 18.3 14.8 74 2.8 NNW 15 30 8 16 1006.6 - -
02/09:00pm 19.5 17.9 15.1 76 2.6 NNW 17 37 9 20 1006.8 - -
02/08:30pm 19.6 18.0 15.0 75 2.7 NNW 17 33 9 18 1007.4 1007.4 -
02/08:00pm 19.5 18.0 15.4 77 2.4 NNW 17 33 9 18 1007.5 - -
02/07:30pm 19.6 18.8 15.2 76 2.6 NNW 13 39 7 21 1007.8 - -
02/07:00pm 19.6 18.8 15.0 75 2.7 NNW 13 32 7 17 1008.1 - -
02/06:30pm 19.2 19.0 15.7 80 2.1 NW 11 26 6 14 1008.4 - -
02/06:00pm 19.3 18.7 15.6 79 2.2 NW 13 24 7 13 1008.4 - -
02/05:30pm 19.4 18.5 15.9 80 2.1 NW 15 32 8 17 1008.7 1008.7 -
02/05:00pm 18.8 18.3 15.9 83 1.7 NNW 13 20 7 11 1008.9 - -
02/04:37pm 17.0 17.1 15.5 91 0.9 ENE 9 15 5 8 1008.9 - -
02/04:30pm 17.2 16.4 15.1 87 1.2 ENE 13 17 7 9 1008.9 - -
02/04:13pm 17.2 16.9 15.5 90 1.0 NNE 11 17 6 9 1008.9 - -
02/03:42pm 16.3 15.0 14.7 90 0.9 E 15 22 8 12 1009.0 - 31.4
02/03:34pm 16.3 14.6 14.6 90 1.0 E 17 20 9 11 1009.1 - 29.6
02/03:30pm 16.4 15.2 15.0 91 0.8 E 15 20 8 11 1009.1 - 29.6
02/03:10pm 15.9 13.4 14.0 88 1.1 ENE 20 24 11 13 1009.3 - 28.4
02/03:00pm 16.1 13.7 14.5 90 0.9 E 20 28 11 15 1009.3 - 26.8
02/02:56pm 15.9 13.5 14.5 91 0.8 E 20 28 11 15 1009.3 - 26.8
02/02:30pm 16.0 13.5 14.2 89 1.0 E 20 26 11 14 1009.8 1009.8 24.8
02/02:17pm 16.0 15.3 14.4 90 0.9 ENE 11 17 6 9 1010.0 - 23.0
02/02:00pm 15.7 14.9 13.9 89 1.0 S 11 17 6 9 1010.2 - 22.2
02/01:50pm 15.0 15.2 14.1 94 0.5 SW 6 13 3 7 1010.3 - 20.4
02/01:30pm 14.7 13.2 13.1 90 0.9 S 13 19 7 10 1010.6 - 17.8
02/01:20pm 14.6 14.2 13.0 90 0.9 SW 7 11 4 6 1011.0 - 16.6
02/01:13pm 15.0 12.0 13.6 91 0.8 WNW 22 37 12 20 1011.7 - 11.8
02/01:09pm 15.7 12.6 13.4 86 1.3 W 22 37 12 20 1011.3 - 5.0
02/01:04pm 18.4 18.2 15.7 84 1.6 N 11 17 6 9 1010.9 - 1.2
02/01:00pm 18.5 18.1 15.3 81 1.9 N 11 20 6 11 1010.7 - 0.6
02/12:50pm 18.5 17.3 15.1 80 2.0 N 15 28 8 15 1010.8 - 0.4
02/12:30pm 19.1 17.5 15.0 77 2.4 N 17 28 9 15 1011.4 - 0.0
02/12:00pm 19.6 19.3 15.4 77 2.5 NNE 11 15 6 8 1011.8 - 0.0
02/11:30am 19.6 18.9 15.4 77 2.5 NNE 13 30 7 16 1012.3 1012.3 0.0
02/11:00am 20.2 18.5 14.7 70 3.2 NNE 17 22 9 12 1012.7 - 0.0
02/10:30am 20.5 19.1 14.5 68 3.5 NNE 15 20 8 11 1013.2 - 0.0
02/10:00am 20.5 19.9 14.7 69 3.4 N 11 20 6 11 1013.9 - 0.0
02/09:30am 20.3 19.8 14.8 70 3.2 N 11 19 6 10 1014.1 - 0.0
02/09:00am 20.0 20.0 15.1 73 2.9 N 9 15 5 8 1014.4 - 0.0
02/08:30am 19.0 19.0 15.1 78 2.3 NNE 9 15 5 8 1014.4 1014.4 0.0
02/08:00am 18.6 19.9 15.2 80 2.0 N 2 11 1 6 1014.6 - 0.0
02/07:30am 18.2 19.3 14.7 80 2.0 E 2 6 1 3 1014.9 - 0.0
02/07:00am 17.8 18.6 14.9 83 1.7 S 4 6 2 3 1015.1 - 0.0
02/06:30am 15.6 16.9 14.0 90 0.9 CALM 0 0 0 0 1014.8 - 0.0
02/06:00am 15.7 16.5 13.6 87 1.2 NW 2 7 1 4 1014.9 - 0.0
02/05:30am 14.0 14.9 12.9 93 0.6 CALM 0 0 0 0 1014.7 1014.7 0.0
02/05:00am 14.4 15.2 12.6 89 1.0 CALM 0 0 0 0 1014.6 - 0.0
02/04:30am 14.2 15.1 12.9 92 0.7 CALM 0 0 0 0 1014.6 - 0.0
02/04:00am 13.5 14.1 12.0 91 0.8 CALM 0 0 0 0 1014.8 - 0.0
02/03:30am 13.4 13.9 11.7 89 0.9 CALM 0 7 0 4 1014.8 - 0.0
02/03:00am 13.8 14.1 12.1 89 0.9 WSW 2 6 1 3 1014.9 - 0.0
02/02:30am 13.9 13.7 11.8 87 1.1 W 4 6 2 3 1015.0 1015.0 0.0
02/02:00am 14.7 14.2 12.1 84 1.4 W 6 9 3 5 1015.3 - 0.0
02/01:30am 14.9 14.5 12.3 84 1.4 W 6 9 3 5 1015.6 - 0.0
02/01:00am 16.1 15.1 12.3 78 2.1 W 9 15 5 8 1015.7 - 0.0
02/12:30am 17.1 15.3 12.2 73 2.7 W 13 17 7 9 1016.0 - 0.0
02/12:00am 16.8 14.8 11.6 71 2.8 W 13 15 7 8 1016.2 - 0.0
 
Date/Time
EST
Temp
°C
App
Temp
°C
Dew
Point
Rel
Hum
%
Delta-T
°C
Wind Press
QNH
hPa
Press
MSL
hPa
Rain
since 9 am
mm
Dir
 
Spd
km/h
Gust
km/h
Spd
kts
Gust
kts
01/11:30pm 17.2 15.4 12.1 72 2.8 W 13 19 7 10 1016.1 1016.1 0.0
01/11:00pm 17.4 15.5 11.9 70 3.0 W 13 17 7 9 1016.2 - 0.0
01/10:30pm 17.6 15.2 12.6 72 2.8 W 17 22 9 12 1016.4 - 0.0
01/10:00pm 17.3 15.8 12.0 71 2.9 SW 11 17 6 9 1016.4 - 0.0
01/09:30pm 17.4 15.7 12.3 72 2.8 WSW 13 17 7 9 1016.5 - 0.0
01/09:00pm 17.4 15.7 12.5 73 2.7 SW 13 19 7 10 1016.5 - 0.0
01/08:30pm 17.4 15.6 12.1 71 2.9 SW 13 17 7 9 1016.5 1016.5 0.0
01/08:00pm 17.7 15.6 12.3 70 3.0 SW 15 20 8 11 1016.5 - 0.0
01/07:30pm 17.7 15.3 12.7 72 2.8 SW 17 24 9 13 1016.5 - 0.0
01/07:00pm 17.8 15.7 12.4 70 3.0 SW 15 24 8 13 1016.3 - 0.0
01/06:30pm 17.6 15.3 11.7 68 3.2 SW 15 20 8 11 1015.9 - 0.0
01/06:00pm 17.9 14.9 11.9 68 3.3 SW 19 26 10 14 1015.7 - 0.0
01/05:30pm 17.9 15.3 12.1 69 3.2 SW 17 22 9 12 1015.3 1015.3 0.0
01/05:00pm 17.9 15.1 12.7 71 2.9 SW 19 24 10 13 1015.2 - 0.0
01/04:30pm 18.3 15.3 12.4 68 3.3 SW 20 28 11 15 1014.9 - 0.0
01/04:00pm 18.5 15.1 12.6 68 3.3 SW 22 30 12 16 1015.0 - 0.0
01/03:30pm 18.6 15.0 13.1 70 3.1 SW 24 33 13 18 1015.0 - 0.0
01/03:00pm 19.0 15.1 13.4 70 3.2 SW 26 35 14 19 1015.1 - 0.0
01/02:30pm 19.1 14.9 13.5 70 3.2 WSW 28 35 15 19 1015.2 1015.2 0.0
01/02:00pm 19.5 15.7 13.5 68 3.4 SW 26 39 14 21 1015.1 - 0.0
01/01:30pm 19.4 15.8 13.2 67 3.5 SW 24 33 13 18 1015.2 - 0.0
01/01:00pm 19.1 14.7 12.9 67 3.5 WSW 28 33 15 18 1015.3 - 0.0
01/12:30pm 19.5 15.2 13.3 67 3.5 WSW 28 37 15 20 1015.6 - 0.0
01/12:00pm 19.5 14.1 12.9 65 3.7 WSW 33 41 18 22 1016.0 - 0.0
01/11:30am 19.8 14.8 12.3 62 4.2 WSW 30 37 16 20 1016.2 1016.2 0.0
01/11:00am 19.5 14.4 13.1 66 3.6 WSW 32 37 17 20 1016.4 - 0.0
01/10:30am 19.3 14.0 12.5 64 3.8 WSW 32 39 17 21 1016.6 - 0.0
01/10:00am 19.6 15.0 13.5 68 3.5 WSW 30 35 16 19 1016.8 - 0.0
01/09:30am 19.2 14.6 12.2 64 3.9 WSW 28 35 15 19 1016.9 - 0.0
01/09:00am 19.0 15.4 11.7 62 4.0 SW 22 30 12 16 1016.8 - 0.0
01/08:30am 18.7 14.7 11.8 64 3.8 WSW 24 32 13 17 1017.0 1017.0 2.2
01/08:00am 18.3 14.3 11.7 65 3.6 WSW 24 33 13 18 1016.8 - 2.2
01/07:30am 18.1 14.5 11.7 66 3.5 SW 22 30 12 16 1016.7 - 2.2
01/07:00am 17.8 14.2 12.0 69 3.2 SW 22 35 12 19 1016.4 - 2.2
01/06:30am 17.7 14.7 12.5 71 2.9 SW 20 30 11 16 1016.4 - 2.2
01/06:00am 17.5 14.0 12.2 71 2.9 SW 22 28 12 15 1016.1 - 2.2
01/05:30am 17.5 14.0 12.2 71 2.9 WSW 22 30 12 16 1015.9 1015.9 2.2
01/05:00am 17.5 13.9 12.0 70 3.0 SW 22 32 12 17 1015.5 - 2.2
01/04:30am 17.5 14.5 12.6 73 2.7 SW 20 30 11 16 1015.2 - 2.2
01/04:00am 17.6 14.2 12.4 71 2.9 SW 22 30 12 16 1015.1 - 2.2
01/03:30am 17.5 15.1 12.6 73 2.7 SW 17 28 9 15 1014.9 - 2.0
01/03:00am 17.1 15.8 13.7 80 1.9 SW 13 19 7 10 1015.0 - 2.0
01/02:30am 17.1 14.7 12.8 76 2.4 SW 17 28 9 15 1015.0 1015.0 2.0
01/02:00am 17.1 15.5 12.8 76 2.4 SW 13 20 7 11 1015.1 - 2.0
01/01:44am 17.2 15.2 12.7 75 2.5 SW 15 22 8 12 1015.2 - 2.0
01/01:30am 16.3 13.3 13.8 85 1.4 W 22 30 12 16 1015.3 - 2.0
01/01:19am 16.9 15.4 13.1 78 2.1 SSW 13 20 7 11 1015.3 - 1.6
01/01:00am 16.6 14.1 14.1 85 1.4 SW 20 30 11 16 1015.4 - 1.4
01/12:30am 17.4 15.9 11.9 70 3.0 SSW 11 19 6 10 1015.4 - 0.8
01/12:00am 16.8 16.2 12.2 74 2.5 S 7 11 4 6 1015.5 - 0.8
 
Date/Time
EST
Temp
°C
App
Temp
°C
Dew
Point
Rel
Hum
%
Delta-T
°C
Wind Press
QNH
hPa
Press
MSL
hPa
Rain
since 9 am
mm
Dir
 
Spd
km/h
Gust
km/h
Spd
kts
Gust
kts
31/11:30pm 16.8 15.0 12.2 74 2.5 S 13 20 7 11 1015.7 1015.7 0.8
31/11:00pm 16.3 15.5 11.7 74 2.5 S 7 13 4 7 1015.6 - 0.8
31/10:30pm 16.4 15.6 11.6 73 2.6 S 7 13 4 7 1015.8 - 0.8
31/10:00pm 16.5 15.2 11.3 71 2.8 SSW 9 19 5 10 1015.8 - 0.8
31/09:30pm 16.5 15.3 11.5 72 2.7 SSW 9 13 5 7 1015.9 - 0.8
31/09:00pm 16.8 15.4 11.0 68 3.1 S 9 15 5 8 1015.9 - 0.8
31/08:30pm 17.0 14.9 11.0 68 3.2 SSW 13 20 7 11 1016.0 1016.0 0.8
31/08:00pm 16.6 15.7 11.4 71 2.8 S 7 15 4 8 1015.9 - 0.8
31/07:30pm 16.7 15.4 11.1 69 3.0 SSW 9 15 5 8 1015.7 - 0.8
31/07:00pm 16.6 15.4 11.6 72 2.7 S 9 17 5 9 1015.5 - 0.8
31/06:30pm 16.6 15.1 12.0 74 2.5 SSW 11 20 6 11 1015.2 - 0.8
31/06:00pm 16.9 15.0 11.8 72 2.8 SSW 13 19 7 10 1014.9 - 0.8
31/05:30pm 17.1 14.9 12.0 72 2.8 SSW 15 20 8 11 1014.7 1014.7 0.8
31/05:00pm 17.3 15.1 12.2 72 2.8 SSW 15 26 8 14 1014.5 - 0.8
31/04:30pm 17.8 16.1 12.4 70 3.0 SSW 13 19 7 10 1014.2 - 0.8
31/04:00pm 18.4 16.3 12.3 67 3.4 SSW 15 24 8 13 1014.0 - 0.8
31/03:30pm 18.5 16.7 12.0 66 3.6 SSW 13 20 7 11 1013.9 - 0.8
31/03:00pm 18.7 17.0 12.4 67 3.5 SW 13 22 7 12 1013.9 - 0.8
31/02:30pm 19.4 17.7 12.6 64 3.8 SSW 13 19 7 10 1013.9 1013.9 0.8
31/02:00pm 19.4 18.6 11.8 61 4.2 SW 7 17 4 9 1013.8 - 0.8
31/01:30pm 19.5 18.2 11.1 58 4.6 SSW 9 19 5 10 1013.8 - 0.8
31/01:00pm 20.1 19.1 12.4 61 4.3 WSW 9 20 5 11 1013.8 - 0.8
31/12:30pm 19.2 18.1 11.8 62 4.1 SSE 9 22 5 12 1014.1 - 0.8
31/12:00pm 19.5 18.6 12.5 64 3.9 SSW 9 13 5 7 1014.2 - 0.8
31/11:30am 19.2 19.1 14.0 72 3.0 ESE 7 15 4 8 1014.4 1014.4 0.8
31/11:00am 19.0 18.2 13.9 72 2.9 SE 11 22 6 12 1014.7 - 0.8
31/10:30am 17.2 16.8 14.0 81 1.8 ESE 9 20 5 11 1015.0 - 0.8
31/10:00am 18.2 17.2 12.2 68 3.3 SE 9 19 5 10 1015.0 - 0.0
31/09:30am 18.0 17.5 13.8 76 2.4 S 9 26 5 14 1015.0 - 0.0
31/09:00am 18.7 17.3 12.2 66 3.6 S 11 20 6 11 1015.0 - 0.0
31/08:30am 19.0 17.6 12.2 64 3.8 ESE 11 20 6 11 1015.0 1015.0 4.2
31/08:00am 19.2 18.3 11.3 60 4.3 SW 7 15 4 8 1014.8 - 4.2
31/07:30am 18.7 17.5 11.6 63 3.9 WSW 9 19 5 10 1014.7 - 4.2
31/07:00am 18.4 17.2 11.7 65 3.7 ESE 9 20 5 11 1014.3 - 4.2
31/06:30am 17.8 16.3 11.8 68 3.3 ESE 11 24 6 13 1014.0 - 4.2
31/06:00am 17.5 16.1 10.8 65 3.6 ESE 9 13 5 7 1013.6 - 4.2
31/05:30am 17.0 16.4 12.3 74 2.6 NNE 7 13 4 7 1013.2 1013.2 4.2
31/05:00am 17.6 16.4 11.5 67 3.3 S 9 19 5 10 1012.9 - -
31/04:30am 17.3 16.0 12.4 73 2.7 ESE 11 22 6 12 1012.6 - -
31/04:00am 17.1 15.5 12.8 76 2.4 SE 13 39 7 21 1012.4 - -
31/03:30am 17.2 15.5 12.5 74 2.6 ESE 13 24 7 13 1012.1 - -
31/03:00am 17.3 15.2 12.4 73 2.7 SE 15 32 8 17 1012.0 - -
31/02:30am 17.1 14.8 13.0 77 2.3 SE 17 39 9 21 1012.0 1012.0 -
31/02:22am 17.0 15.1 13.1 78 2.2 SE 15 28 8 15 1012.0 - -
31/02:03am 17.0 15.1 13.1 78 2.2 SE 15 24 8 13 1011.9 - -
31/02:00am 17.0 15.2 13.3 79 2.1 SE 15 24 8 13 1011.8 - -
31/01:46am 16.9 15.5 13.5 80 1.9 SSE 13 20 7 11 1011.9 - -
31/01:41am 17.4 15.8 12.7 74 2.6 SE 13 33 7 18 1011.9 - -
31/01:30am 17.0 14.6 12.7 76 2.4 ESE 17 39 9 21 1011.8 - -
31/01:11am 17.0 16.0 12.3 74 2.6 SSW 9 13 5 7 1011.9 - -
31/01:00am 16.7 15.5 12.7 77 2.2 S 11 24 6 13 1011.9 - -
31/12:48am 17.2 14.5 12.9 76 2.4 SE 19 41 10 22 1012.0 - -
31/12:30am 17.3 14.9 12.6 74 2.6 SE 17 35 9 19 1011.8 - -
31/12:00am 17.6 14.9 12.8 73 2.7 SSW 19 32 10 17 1012.0 - -
 
Date/Time
EST
Temp
°C
App
Temp
°C
Dew
Point
Rel
Hum
%
Delta-T
°C
Wind Press
QNH
hPa
Press
MSL
hPa
Rain
since 9 am
mm
Dir
 
Spd
km/h
Gust
km/h
Spd
kts
Gust
kts
30/11:30pm 16.8 15.8 13.4 80 1.9 ESE 11 22 6 12 1012.0 1012.0 -

Other Formats:

Comma delimited format used in spreadsheet applications
http://www.bom.gov.au/fwo/IDN60801/IDN60801.94995.axf

JavaScript Object Notation format (JSON) in row-major order
http://www.bom.gov.au/fwo/IDN60801/IDN60801.94995.json